»·PEaware :: N1DB KSJC-KBUR

N1DB :: KSJC-KBUR

FLIGHT INFORMATION

Flight Status: Arrived
Operator: Privately registered:
United States
More flights under this callsign
Pilot: Dominic B. (18944)
Aircraft: DASSAULT AVIATION FALCON 50
(FA50)
More flights by this aircraft type
Origin: KSJC Mineta San Jose Intl
United States
Destination: KBUR Bob Hope-Burbank
United States
More flights between these airports :: More routes between these airports
Route: TECKY3 EBAYE BURGL HONZK ROKKR2
File this flight plan on PilotEdge
Remarks: RMK / SIMBRIEF
Altitude:
(Current/Filed)
33,000ft
Speed:
(Current/Filed)
469kts
Departed: 19-Nov-20 03:37 PM
Arrived: 19-Nov-20 04:23 PM
Distance/Time
Traveled:
257nm/0:46
Distance/Time
To Go:
Arrived

Flight Plot

Page will automatically refresh every two minutes.

Flight plan parsing failed; only flown route is shown


Map Options




Map Legend


Flown Route
Filed Route
Departure Airport
Arrival Airport
Navaid (VOR, NDB)
Fix

Horizontal Profiles

Position Reports

Time Latitude Longitude Heading Altitude Ground
Speed
19-Nov-20 14:36 37.357495 -121.929692 49 50ft 0kts
19-Nov-20 14:44 37.357495 -121.929692 49 50ft 0kts
19-Nov-20 14:45 37.357495 -121.929692 49 50ft 0kts
19-Nov-20 14:46 37.357495 -121.929692 49 50ft 0kts
19-Nov-20 14:47 37.357495 -121.929692 49 50ft 0kts
19-Nov-20 14:48 37.357495 -121.929692 49 50ft 0kts
19-Nov-20 14:49 37.357495 -121.929692 49 50ft 0kts
19-Nov-20 14:50 37.357495 -121.929692 49 50ft 0kts
19-Nov-20 14:51 37.357495 -121.929692 49 50ft 0kts
19-Nov-20 14:52 37.357495 -121.929692 49 50ft 0kts
19-Nov-20 14:53 37.357495 -121.929692 49 50ft 0kts
19-Nov-20 14:54 37.357495 -121.929692 49 50ft 0kts
19-Nov-20 14:55 37.357495 -121.929692 49 50ft 0kts
19-Nov-20 14:56 37.357495 -121.929692 49 50ft 0kts
19-Nov-20 14:57 37.357495 -121.929692 49 50ft 0kts
19-Nov-20 14:58 37.357495 -121.929692 49 50ft 0kts
19-Nov-20 14:59 37.357495 -121.929692 49 50ft 0kts
19-Nov-20 14:59 37.357495 -121.929692 49 50ft 0kts
19-Nov-20 15:01 37.357495 -121.929692 49 50ft 0kts
19-Nov-20 15:02 37.357495 -121.929692 49 50ft 0kts
19-Nov-20 15:03 37.357495 -121.929692 49 50ft 0kts
19-Nov-20 15:03 37.357495 -121.929692 49 50ft 0kts
19-Nov-20 15:04 37.357495 -121.929692 49 50ft 0kts
19-Nov-20 15:05 37.357495 -121.929692 49 50ft 0kts
19-Nov-20 15:06 37.357495 -121.929692 49 50ft 0kts
19-Nov-20 15:07 37.357495 -121.929692 49 50ft 0kts
19-Nov-20 15:08 37.357495 -121.929692 49 50ft 0kts
19-Nov-20 15:09 37.357495 -121.929692 49 50ft 0kts
19-Nov-20 15:10 37.357495 -121.929692 49 50ft 0kts
19-Nov-20 15:11 37.357495 -121.929692 49 50ft 0kts
19-Nov-20 15:12 37.357495 -121.929692 49 50ft 0kts
19-Nov-20 15:13 37.357495 -121.929692 49 50ft 0kts
19-Nov-20 15:14 37.357495 -121.929692 49 50ft 0kts
19-Nov-20 15:15 37.357495 -121.929692 49 50ft 0kts
19-Nov-20 15:16 37.357495 -121.929692 49 50ft 0kts
19-Nov-20 15:17 37.357495 -121.929692 49 50ft 0kts
19-Nov-20 15:18 37.357495 -121.929692 49 50ft 0kts
19-Nov-20 15:19 37.357495 -121.929692 49 50ft 0kts
19-Nov-20 15:20 37.357495 -121.929692 49 50ft 0kts
19-Nov-20 15:21 37.357495 -121.929692 49 50ft 0kts
19-Nov-20 15:22 37.357495 -121.929692 49 50ft 0kts
19-Nov-20 15:23 37.357495 -121.929692 49 50ft 0kts
19-Nov-20 15:24 37.357522 -121.929653 49 50ft 0kts
19-Nov-20 15:25 37.357565 -121.929590 49 50ft 0kts
19-Nov-20 15:26 37.357558 -121.929087 105 50ft 5kts
19-Nov-20 15:27 37.355847 -121.926810 139 50ft 10kts
19-Nov-20 15:28 37.354666 -121.923744 47 50ft 10kts
19-Nov-20 15:29 37.353099 -121.921371 138 50ft 12kts
19-Nov-20 15:30 37.352113 -121.919744 59 50ft 0kts
19-Nov-20 15:31 37.352113 -121.919744 59 50ft 0kts
19-Nov-20 15:32 37.352113 -121.919744 59 50ft 0kts
19-Nov-20 15:33 37.352113 -121.919744 59 50ft 0kts
19-Nov-20 15:34 37.352113 -121.919744 59 50ft 0kts
19-Nov-20 15:35 37.352120 -121.919729 58 50ft 0kts
19-Nov-20 15:36 37.360382 -121.927352 318 100ft 130kts
19-Nov-20 15:37 37.386560 -121.956572 318 1853ft 139kts
19-Nov-20 15:38 37.429437 -121.966552 54 3357ft 229kts
19-Nov-20 15:39 37.403723 -121.889582 131 5029ft 299kts
19-Nov-20 15:40 37.352096 -121.819425 132 7074ft 259kts
19-Nov-20 15:41 37.298815 -121.754249 139 10724ft 282kts
19-Nov-20 15:42 37.238959 -121.686477 142 14356ft 305kts
19-Nov-20 15:43 37.171101 -121.609808 144 17770ft 346kts
19-Nov-20 15:44 37.097636 -121.526831 145 21116ft 366kts
19-Nov-20 15:45 37.019564 -121.440983 148 24009ft 382kts
19-Nov-20 15:46 36.937023 -121.353388 148 26548ft 396kts
19-Nov-20 15:47 36.852369 -121.263394 149 28737ft 406kts
19-Nov-20 15:48 36.764871 -121.170676 149 30513ft 419kts
19-Nov-20 15:49 36.674262 -121.074922 148 31952ft 434kts
19-Nov-20 15:50 36.580452 -120.976610 149 33224ft 448kts
19-Nov-20 15:51 36.479773 -120.874749 148 33257ft 488kts
19-Nov-20 15:52 36.371672 -120.765029 148 33253ft 513kts
19-Nov-20 15:53 36.259261 -120.651463 147 33253ft 527kts
19-Nov-20 15:54 36.145584 -120.537067 147 33251ft 527kts
19-Nov-20 15:55 36.032443 -120.423695 147 33253ft 523kts
19-Nov-20 15:56 35.918799 -120.310296 148 33229ft 520kts
19-Nov-20 15:57 35.800992 -120.210865 155 33218ft 510kts
19-Nov-20 15:58 35.680476 -120.118893 156 33234ft 508kts
19-Nov-20 15:59 35.552209 -120.057324 166 33245ft 496kts
19-Nov-20 16:00 35.422661 -119.997407 166 33237ft 496kts
19-Nov-20 16:01 35.294168 -119.939155 166 32608ft 486kts
19-Nov-20 16:02 35.173034 -119.884346 167 29650ft 448kts
19-Nov-20 16:03 35.063990 -119.812074 146 27132ft 451kts
19-Nov-20 16:04 34.969948 -119.715469 146 24640ft 436kts
19-Nov-20 16:05 34.879667 -119.620763 140 22093ft 422kts
19-Nov-20 16:06 34.805207 -119.514396 133 19864ft 402kts
19-Nov-20 16:07 34.736558 -119.410984 132 17712ft 385kts
19-Nov-20 16:08 34.671819 -119.311976 132 15747ft 365kts
19-Nov-20 16:09 34.615343 -119.212009 124 14001ft 348kts
19-Nov-20 16:10 34.567273 -119.114540 123 12581ft 330kts
19-Nov-20 16:11 34.507987 -119.035753 145 11044ft 307kts
19-Nov-20 16:12 34.441544 -118.974969 143 9573ft 293kts
19-Nov-20 16:13 34.380825 -118.912602 125 8152ft 278kts
19-Nov-20 16:14 34.365564 -118.823957 94 7170ft 271kts
19-Nov-20 16:15 34.356250 -118.733902 96 6225ft 265kts
19-Nov-20 16:16 34.346902 -118.647571 96 5766ft 253kts
19-Nov-20 16:17 34.338166 -118.560950 96 5481ft 266kts
19-Nov-20 16:18 34.329137 -118.473493 96 4419ft 241kts
19-Nov-20 16:19 34.302485 -118.404175 153 2991ft 236kts
19-Nov-20 16:20 34.258665 -118.379291 155 2124ft 141kts
19-Nov-20 16:21 34.224851 -118.363862 163 1129ft 126kts
19-Nov-20 16:22 34.199381 -118.356944 184 783ft 18kts
19-Nov-20 16:23 34.198881 -118.357739 276 783ft 0kts
19-Nov-20 16:24 34.199651 -118.358626 291 783ft 0kts
19-Nov-20 16:25 34.200171 -118.359448 342 783ft 0kts

Navigation Log

Ident Type
Flight plan parsing failed, navigation log unavailable